sensor_id;sensor_type;location;lat;lon;timestamp;P1;durP1;ratioP1;P2;durP2;ratioP2
77217;SDS011;66214;51.302;17.068;2023-03-23T00:00:02;11.30;;;5.60;;
77217;SDS011;66214;51.302;17.068;2023-03-23T00:03:12;13.50;;;5.90;;
77217;SDS011;66214;51.302;17.068;2023-03-23T00:05:39;15.30;;;5.80;;
77217;SDS011;66214;51.302;17.068;2023-03-23T00:08:19;13.80;;;6.00;;
77217;SDS011;66214;51.302;17.068;2023-03-23T00:10:50;12.20;;;5.20;;
77217;SDS011;66214;51.302;17.068;2023-03-23T00:13:24;14.50;;;5.40;;
77217;SDS011;66214;51.302;17.068;2023-03-23T00:15:53;14.90;;;5.30;;
77217;SDS011;66214;51.302;17.068;2023-03-23T00:18:21;13.70;;;5.50;;
77217;SDS011;66214;51.302;17.068;2023-03-23T00:20:50;13.10;;;5.30;;
77217;SDS011;66214;51.302;17.068;2023-03-23T00:23:21;9.20;;;4.80;;
77217;SDS011;66214;51.302;17.068;2023-03-23T00:25:54;11.00;;;4.10;;
77217;SDS011;66214;51.302;17.068;2023-03-23T00:28:26;8.80;;;4.80;;
77217;SDS011;66214;51.302;17.068;2023-03-23T00:31:04;12.40;;;5.40;;
77217;SDS011;66214;51.302;17.068;2023-03-23T00:33:35;10.30;;;4.90;;
77217;SDS011;66214;51.302;17.068;2023-03-23T00:36:10;11.80;;;5.50;;
77217;SDS011;66214;51.302;17.068;2023-03-23T00:38:40;9.60;;;5.00;;
77217;SDS011;66214;51.302;17.068;2023-03-23T00:41:11;16.80;;;8.30;;
77217;SDS011;66214;51.302;17.068;2023-03-23T00:43:39;17.50;;;9.50;;
77217;SDS011;66214;51.302;17.068;2023-03-23T00:46:07;18.90;;;10.00;;
77217;SDS011;66214;51.302;17.068;2023-03-23T00:48:37;23.10;;;10.40;;
77217;SDS011;66214;51.302;17.068;2023-03-23T00:51:12;15.00;;;8.50;;
77217;SDS011;66214;51.302;17.068;2023-03-23T00:53:40;20.60;;;9.80;;
77217;SDS011;66214;51.302;17.068;2023-03-23T00:56:09;21.20;;;11.50;;
77217;SDS011;66214;51.302;17.068;2023-03-23T00:58:37;25.20;;;12.10;;
77217;SDS011;66214;51.302;17.068;2023-03-23T01:01:05;22.10;;;11.70;;
77217;SDS011;66214;51.302;17.068;2023-03-23T01:03:34;23.50;;;12.00;;
77217;SDS011;66214;51.302;17.068;2023-03-23T01:06:08;21.80;;;11.40;;
77217;SDS011;66214;51.302;17.068;2023-03-23T01:08:40;21.30;;;11.40;;
77217;SDS011;66214;51.302;17.068;2023-03-23T01:11:14;22.80;;;12.50;;
77217;SDS011;66214;51.302;17.068;2023-03-23T01:13:43;23.90;;;11.30;;
77217;SDS011;66214;51.302;17.068;2023-03-23T01:16:12;20.10;;;10.90;;
77217;SDS011;66214;51.302;17.068;2023-03-23T01:18:40;22.10;;;11.10;;
77217;SDS011;66214;51.302;17.068;2023-03-23T01:21:11;18.80;;;9.60;;
77217;SDS011;66214;51.302;17.068;2023-03-23T01:23:41;21.10;;;11.20;;
77217;SDS011;66214;51.302;17.068;2023-03-23T01:26:15;23.30;;;11.70;;
77217;SDS011;66214;51.302;17.068;2023-03-23T01:28:44;20.70;;;10.80;;
77217;SDS011;66214;51.302;17.068;2023-03-23T01:31:15;22.10;;;11.70;;
77217;SDS011;66214;51.302;17.068;2023-03-23T01:33:45;20.70;;;10.50;;
77217;SDS011;66214;51.302;17.068;2023-03-23T01:36:19;24.70;;;12.70;;
77217;SDS011;66214;51.302;17.068;2023-03-23T01:38:50;25.30;;;11.50;;
77217;SDS011;66214;51.302;17.068;2023-03-23T01:41:18;18.80;;;10.40;;
77217;SDS011;66214;51.302;17.068;2023-03-23T01:46:31;23.60;;;10.60;;
77217;SDS011;66214;51.302;17.068;2023-03-23T01:49:23;23.20;;;11.40;;
77217;SDS011;66214;51.302;17.068;2023-03-23T01:52:00;18.00;;;10.40;;
77217;SDS011;66214;51.302;17.068;2023-03-23T01:54:30;20.60;;;10.10;;
77217;SDS011;66214;51.302;17.068;2023-03-23T01:57:07;21.60;;;11.60;;
77217;SDS011;66214;51.302;17.068;2023-03-23T01:59:38;25.40;;;12.00;;
77217;SDS011;66214;51.302;17.068;2023-03-23T02:02:05;19.60;;;12.10;;
77217;SDS011;66214;51.302;17.068;2023-03-23T02:04:34;22.40;;;10.20;;
77217;SDS011;66214;51.302;17.068;2023-03-23T02:07:02;18.70;;;11.00;;
77217;SDS011;66214;51.302;17.068;2023-03-23T02:09:31;20.20;;;11.60;;
77217;SDS011;66214;51.302;17.068;2023-03-23T02:11:59;21.10;;;11.90;;
77217;SDS011;66214;51.302;17.068;2023-03-23T02:14:28;22.40;;;11.70;;
77217;SDS011;66214;51.302;17.068;2023-03-23T02:20:01;22.20;;;11.50;;
77217;SDS011;66214;51.302;17.068;2023-03-23T02:31:44;17.30;;;9.20;;
77217;SDS011;66214;51.302;17.068;2023-03-23T02:34:29;15.00;;;8.70;;
77217;SDS011;66214;51.302;17.068;2023-03-23T02:37:06;16.10;;;8.00;;
77217;SDS011;66214;51.302;17.068;2023-03-23T02:39:50;17.00;;;9.50;;
77217;SDS011;66214;51.302;17.068;2023-03-23T02:42:26;17.00;;;9.20;;
77217;SDS011;66214;51.302;17.068;2023-03-23T02:44:58;21.00;;;10.00;;
77217;SDS011;66214;51.302;17.068;2023-03-23T02:47:31;20.50;;;9.90;;
77217;SDS011;66214;51.302;17.068;2023-03-23T02:50:01;19.10;;;9.30;;
77217;SDS011;66214;51.302;17.068;2023-03-23T02:52:32;18.30;;;9.10;;
77217;SDS011;66214;51.302;17.068;2023-03-23T02:55:02;16.80;;;8.60;;
77217;SDS011;66214;51.302;17.068;2023-03-23T02:57:31;16.90;;;7.90;;
77217;SDS011;66214;51.302;17.068;2023-03-23T02:59:59;13.90;;;7.60;;
77217;SDS011;66214;51.302;17.068;2023-03-23T03:02:29;16.50;;;9.00;;
77217;SDS011;66214;51.302;17.068;2023-03-23T03:10:50;17.40;;;8.50;;
77217;SDS011;66214;51.302;17.068;2023-03-23T03:13:45;19.60;;;9.60;;
77217;SDS011;66214;51.302;17.068;2023-03-23T03:19:45;16.40;;;8.50;;
77217;SDS011;66214;51.302;17.068;2023-03-23T03:22:16;19.50;;;9.80;;
77217;SDS011;66214;51.302;17.068;2023-03-23T03:24:45;16.30;;;9.20;;
77217;SDS011;66214;51.302;17.068;2023-03-23T03:27:16;19.40;;;8.80;;
77217;SDS011;66214;51.302;17.068;2023-03-23T03:29:47;14.50;;;8.20;;
77217;SDS011;66214;51.302;17.068;2023-03-23T03:32:25;15.80;;;8.50;;
77217;SDS011;66214;51.302;17.068;2023-03-23T03:35:00;15.30;;;8.10;;
77217;SDS011;66214;51.302;17.068;2023-03-23T03:37:36;18.80;;;8.40;;
77217;SDS011;66214;51.302;17.068;2023-03-23T03:40:10;15.30;;;8.00;;
77217;SDS011;66214;51.302;17.068;2023-03-23T03:42:41;18.40;;;9.40;;
77217;SDS011;66214;51.302;17.068;2023-03-23T03:45:13;17.10;;;9.10;;
77217;SDS011;66214;51.302;17.068;2023-03-23T03:47:43;19.20;;;9.00;;
77217;SDS011;66214;51.302;17.068;2023-03-23T03:50:11;19.30;;;9.50;;
77217;SDS011;66214;51.302;17.068;2023-03-23T03:52:39;18.60;;;9.40;;
77217;SDS011;66214;51.302;17.068;2023-03-23T03:55:08;17.30;;;8.70;;
77217;SDS011;66214;51.302;17.068;2023-03-23T03:57:38;17.00;;;8.80;;
77217;SDS011;66214;51.302;17.068;2023-03-23T04:00:08;15.40;;;8.30;;
77217;SDS011;66214;51.302;17.068;2023-03-23T04:02:44;13.50;;;6.80;;
77217;SDS011;66214;51.302;17.068;2023-03-23T04:05:21;18.50;;;8.10;;
77217;SDS011;66214;51.302;17.068;2023-03-23T04:07:50;15.10;;;8.30;;
77217;SDS011;66214;51.302;17.068;2023-03-23T04:10:20;15.20;;;7.80;;
77217;SDS011;66214;51.302;17.068;2023-03-23T04:12:51;16.80;;;8.20;;
77217;SDS011;66214;51.302;17.068;2023-03-23T04:15:19;16.70;;;7.70;;
77217;SDS011;66214;51.302;17.068;2023-03-23T04:17:47;15.30;;;8.30;;
77217;SDS011;66214;51.302;17.068;2023-03-23T04:20:14;16.10;;;7.00;;
77217;SDS011;66214;51.302;17.068;2023-03-23T04:22:48;15.30;;;7.90;;
77217;SDS011;66214;51.302;17.068;2023-03-23T04:25:18;14.90;;;7.80;;
77217;SDS011;66214;51.302;17.068;2023-03-23T04:27:51;13.20;;;6.70;;
77217;SDS011;66214;51.302;17.068;2023-03-23T04:30:21;17.20;;;9.60;;
77217;SDS011;66214;51.302;17.068;2023-03-23T04:32:51;17.30;;;7.80;;
77217;SDS011;66214;51.302;17.068;2023-03-23T04:35:24;16.40;;;8.10;;
77217;SDS011;66214;51.302;17.068;2023-03-23T04:37:53;14.10;;;7.60;;
77217;SDS011;66214;51.302;17.068;2023-03-23T04:40:22;16.70;;;7.90;;
77217;SDS011;66214;51.302;17.068;2023-03-23T04:42:51;11.30;;;5.70;;
77217;SDS011;66214;51.302;17.068;2023-03-23T04:45:20;14.30;;;8.10;;
77217;SDS011;66214;51.302;17.068;2023-03-23T04:47:49;16.50;;;7.90;;
77217;SDS011;66214;51.302;17.068;2023-03-23T04:50:28;16.70;;;7.60;;
77217;SDS011;66214;51.302;17.068;2023-03-23T04:52:59;16.60;;;8.30;;
77217;SDS011;66214;51.302;17.068;2023-03-23T04:55:33;12.80;;;6.30;;
77217;SDS011;66214;51.302;17.068;2023-03-23T04:58:06;12.50;;;6.90;;
77217;SDS011;66214;51.302;17.068;2023-03-23T05:00:35;15.90;;;5.70;;
77217;SDS011;66214;51.302;17.068;2023-03-23T05:03:04;12.50;;;6.40;;
77217;SDS011;66214;51.302;17.068;2023-03-23T05:05:34;12.10;;;6.40;;
77217;SDS011;66214;51.302;17.068;2023-03-23T05:08:03;12.10;;;6.50;;
77217;SDS011;66214;51.302;17.068;2023-03-23T05:14:25;11.70;;;6.40;;
77217;SDS011;66214;51.302;17.068;2023-03-23T05:16:53;15.00;;;7.50;;
77217;SDS011;66214;51.302;17.068;2023-03-23T05:19:20;14.00;;;7.60;;
77217;SDS011;66214;51.302;17.068;2023-03-23T05:21:46;13.10;;;6.00;;
77217;SDS011;66214;51.302;17.068;2023-03-23T05:24:13;11.60;;;6.80;;
77217;SDS011;66214;51.302;17.068;2023-03-23T05:26:39;10.50;;;4.30;;
77217;SDS011;66214;51.302;17.068;2023-03-23T05:29:06;11.60;;;5.90;;
77217;SDS011;66214;51.302;17.068;2023-03-23T05:31:32;11.70;;;6.00;;
77217;SDS011;66214;51.302;17.068;2023-03-23T05:33:59;14.00;;;6.00;;
77217;SDS011;66214;51.302;17.068;2023-03-23T05:36:25;10.70;;;5.50;;
77217;SDS011;66214;51.302;17.068;2023-03-23T05:38:52;14.40;;;6.60;;
77217;SDS011;66214;51.302;17.068;2023-03-23T05:41:18;12.40;;;6.30;;
77217;SDS011;66214;51.302;17.068;2023-03-23T05:43:45;8.50;;;4.60;;
77217;SDS011;66214;51.302;17.068;2023-03-23T05:46:11;12.70;;;5.70;;
77217;SDS011;66214;51.302;17.068;2023-03-23T05:48:38;13.90;;;6.10;;
77217;SDS011;66214;51.302;17.068;2023-03-23T05:51:04;8.30;;;4.60;;
77217;SDS011;66214;51.302;17.068;2023-03-23T05:53:31;12.00;;;5.60;;
77217;SDS011;66214;51.302;17.068;2023-03-23T05:56:01;12.50;;;5.50;;
77217;SDS011;66214;51.302;17.068;2023-03-23T05:58:29;9.90;;;5.30;;
77217;SDS011;66214;51.302;17.068;2023-03-23T06:00:56;10.90;;;5.30;;
77217;SDS011;66214;51.302;17.068;2023-03-23T06:03:23;12.50;;;6.40;;
77217;SDS011;66214;51.302;17.068;2023-03-23T06:05:49;10.90;;;5.30;;
77217;SDS011;66214;51.302;17.068;2023-03-23T06:08:16;11.40;;;5.10;;
77217;SDS011;66214;51.302;17.068;2023-03-23T06:10:43;11.60;;;5.50;;
77217;SDS011;66214;51.302;17.068;2023-03-23T06:13:10;11.80;;;6.10;;
77217;SDS011;66214;51.302;17.068;2023-03-23T06:15:36;9.90;;;5.00;;
77217;SDS011;66214;51.302;17.068;2023-03-23T06:18:04;9.90;;;4.80;;
77217;SDS011;66214;51.302;17.068;2023-03-23T06:20:32;10.20;;;5.30;;
77217;SDS011;66214;51.302;17.068;2023-03-23T06:22:58;10.80;;;5.10;;
77217;SDS011;66214;51.302;17.068;2023-03-23T06:25:25;14.10;;;6.10;;
77217;SDS011;66214;51.302;17.068;2023-03-23T06:27:51;11.00;;;5.00;;
77217;SDS011;66214;51.302;17.068;2023-03-23T06:30:18;10.30;;;5.00;;
77217;SDS011;66214;51.302;17.068;2023-03-23T06:32:45;10.30;;;4.40;;
77217;SDS011;66214;51.302;17.068;2023-03-23T06:35:14;9.70;;;5.00;;
77217;SDS011;66214;51.302;17.068;2023-03-23T06:37:41;8.60;;;4.30;;
77217;SDS011;66214;51.302;17.068;2023-03-23T06:40:09;9.90;;;5.10;;
77217;SDS011;66214;51.302;17.068;2023-03-23T06:42:36;10.00;;;5.40;;
77217;SDS011;66214;51.302;17.068;2023-03-23T06:45:04;7.90;;;4.00;;
77217;SDS011;66214;51.302;17.068;2023-03-23T06:47:31;11.50;;;5.10;;
77217;SDS011;66214;51.302;17.068;2023-03-23T06:49:58;11.40;;;5.70;;
77217;SDS011;66214;51.302;17.068;2023-03-23T06:52:25;15.80;;;8.60;;
77217;SDS011;66214;51.302;17.068;2023-03-23T06:54:52;13.80;;;7.20;;
77217;SDS011;66214;51.302;17.068;2023-03-23T06:57:19;14.30;;;4.90;;
77217;SDS011;66214;51.302;17.068;2023-03-23T06:59:47;10.90;;;4.80;;
77217;SDS011;66214;51.302;17.068;2023-03-23T07:02:14;9.70;;;4.60;;
77217;SDS011;66214;51.302;17.068;2023-03-23T07:04:41;9.30;;;4.90;;
77217;SDS011;66214;51.302;17.068;2023-03-23T07:07:09;10.80;;;4.70;;
77217;SDS011;66214;51.302;17.068;2023-03-23T07:09:37;9.40;;;4.90;;
77217;SDS011;66214;51.302;17.068;2023-03-23T07:12:03;11.20;;;5.10;;
77217;SDS011;66214;51.302;17.068;2023-03-23T07:18:48;10.30;;;4.50;;
77217;SDS011;66214;51.302;17.068;2023-03-23T07:21:15;10.00;;;4.80;;
77217;SDS011;66214;51.302;17.068;2023-03-23T07:23:42;9.50;;;4.20;;
77217;SDS011;66214;51.302;17.068;2023-03-23T07:26:08;10.70;;;5.60;;
77217;SDS011;66214;51.302;17.068;2023-03-23T07:28:35;10.80;;;4.70;;
77217;SDS011;66214;51.302;17.068;2023-03-23T07:31:02;10.10;;;4.60;;
77217;SDS011;66214;51.302;17.068;2023-03-23T07:33:29;9.30;;;4.60;;
77217;SDS011;66214;51.302;17.068;2023-03-23T07:35:58;11.30;;;5.40;;
77217;SDS011;66214;51.302;17.068;2023-03-23T07:38:26;10.20;;;4.80;;
77217;SDS011;66214;51.302;17.068;2023-03-23T07:40:54;10.60;;;5.10;;
77217;SDS011;66214;51.302;17.068;2023-03-23T07:43:20;8.90;;;4.80;;
77217;SDS011;66214;51.302;17.068;2023-03-23T07:45:47;11.10;;;5.10;;
77217;SDS011;66214;51.302;17.068;2023-03-23T07:48:13;10.30;;;4.80;;
77217;SDS011;66214;51.302;17.068;2023-03-23T07:50:40;10.80;;;4.30;;
77217;SDS011;66214;51.302;17.068;2023-03-23T07:53:07;9.30;;;4.90;;
77217;SDS011;66214;51.302;17.068;2023-03-23T07:55:33;11.40;;;5.50;;
77217;SDS011;66214;51.302;17.068;2023-03-23T07:58:00;10.20;;;4.50;;
77217;SDS011;66214;51.302;17.068;2023-03-23T08:00:26;9.40;;;4.40;;
77217;SDS011;66214;51.302;17.068;2023-03-23T08:02:54;8.70;;;4.30;;
77217;SDS011;66214;51.302;17.068;2023-03-23T08:05:23;8.90;;;4.20;;
77217;SDS011;66214;51.302;17.068;2023-03-23T08:07:53;12.80;;;4.30;;
77217;SDS011;66214;51.302;17.068;2023-03-23T08:10:21;9.00;;;3.60;;
77217;SDS011;66214;51.302;17.068;2023-03-23T08:12:54;10.00;;;4.20;;
77217;SDS011;66214;51.302;17.068;2023-03-23T08:15:22;11.90;;;4.40;;
77217;SDS011;66214;51.302;17.068;2023-03-23T08:17:50;10.20;;;5.10;;
77217;SDS011;66214;51.302;17.068;2023-03-23T08:20:18;13.00;;;5.60;;
77217;SDS011;66214;51.302;17.068;2023-03-23T08:22:52;8.60;;;3.70;;
77217;SDS011;66214;51.302;17.068;2023-03-23T08:25:22;11.60;;;4.70;;
77217;SDS011;66214;51.302;17.068;2023-03-23T08:27:50;10.00;;;4.70;;
77217;SDS011;66214;51.302;17.068;2023-03-23T08:30:18;10.00;;;4.00;;
77217;SDS011;66214;51.302;17.068;2023-03-23T08:32:46;8.80;;;4.50;;
77217;SDS011;66214;51.302;17.068;2023-03-23T08:35:14;10.80;;;4.30;;
77217;SDS011;66214;51.302;17.068;2023-03-23T08:37:42;13.90;;;4.50;;
77217;SDS011;66214;51.302;17.068;2023-03-23T08:40:10;12.60;;;4.20;;
77217;SDS011;66214;51.302;17.068;2023-03-23T08:42:42;11.20;;;4.50;;
77217;SDS011;66214;51.302;17.068;2023-03-23T08:45:12;7.20;;;3.50;;
77217;SDS011;66214;51.302;17.068;2023-03-23T08:47:41;11.00;;;4.40;;
77217;SDS011;66214;51.302;17.068;2023-03-23T08:50:11;10.40;;;3.50;;
77217;SDS011;66214;51.302;17.068;2023-03-23T08:52:41;9.40;;;4.40;;
77217;SDS011;66214;51.302;17.068;2023-03-23T08:55:08;12.10;;;4.40;;
77217;SDS011;66214;51.302;17.068;2023-03-23T08:57:35;9.00;;;4.20;;
77217;SDS011;66214;51.302;17.068;2023-03-23T09:00:04;8.70;;;4.40;;
77217;SDS011;66214;51.302;17.068;2023-03-23T09:02:46;6.90;;;3.20;;
77217;SDS011;66214;51.302;17.068;2023-03-23T09:05:18;13.10;;;3.40;;
77217;SDS011;66214;51.302;17.068;2023-03-23T09:07:49;7.40;;;3.90;;
77217;SDS011;66214;51.302;17.068;2023-03-23T09:10:17;5.90;;;3.10;;
77217;SDS011;66214;51.302;17.068;2023-03-23T09:12:46;7.50;;;3.10;;
77217;SDS011;66214;51.302;17.068;2023-03-23T09:15:15;7.10;;;3.20;;
77217;SDS011;66214;51.302;17.068;2023-03-23T09:17:44;10.20;;;3.60;;
77217;SDS011;66214;51.302;17.068;2023-03-23T09:20:14;7.60;;;3.30;;
77217;SDS011;66214;51.302;17.068;2023-03-23T09:22:45;5.00;;;2.10;;
77217;SDS011;66214;51.302;17.068;2023-03-23T09:25:15;6.30;;;2.90;;
77217;SDS011;66214;51.302;17.068;2023-03-23T09:27:45;8.50;;;3.30;;
77217;SDS011;66214;51.302;17.068;2023-03-23T09:30:15;8.70;;;3.60;;
77217;SDS011;66214;51.302;17.068;2023-03-23T09:32:41;8.10;;;3.50;;
77217;SDS011;66214;51.302;17.068;2023-03-23T09:35:10;6.90;;;3.60;;
77217;SDS011;66214;51.302;17.068;2023-03-23T09:37:40;6.10;;;3.20;;
77217;SDS011;66214;51.302;17.068;2023-03-23T09:40:12;6.30;;;3.10;;
77217;SDS011;66214;51.302;17.068;2023-03-23T09:48:54;6.30;;;3.00;;
77217;SDS011;66214;51.302;17.068;2023-03-23T09:51:42;7.80;;;3.90;;
77217;SDS011;66214;51.302;17.068;2023-03-23T09:54:24;9.50;;;4.00;;
77217;SDS011;66214;51.302;17.068;2023-03-23T09:56:54;7.90;;;3.60;;
77217;SDS011;66214;51.302;17.068;2023-03-23T09:59:39;7.10;;;2.10;;
77217;SDS011;66214;51.302;17.068;2023-03-23T10:02:15;4.30;;;1.80;;
77217;SDS011;66214;51.302;17.068;2023-03-23T10:04:47;5.90;;;2.00;;
77217;SDS011;66214;51.302;17.068;2023-03-23T10:07:33;4.40;;;2.00;;
77217;SDS011;66214;51.302;17.068;2023-03-23T10:10:01;3.50;;;1.60;;
77217;SDS011;66214;51.302;17.068;2023-03-23T10:13:12;5.50;;;2.30;;
77217;SDS011;66214;51.302;17.068;2023-03-23T10:15:43;5.90;;;2.10;;
77217;SDS011;66214;51.302;17.068;2023-03-23T10:18:29;3.90;;;1.80;;
77217;SDS011;66214;51.302;17.068;2023-03-23T10:21:12;4.90;;;1.70;;
77217;SDS011;66214;51.302;17.068;2023-03-23T10:24:02;6.50;;;2.70;;
77217;SDS011;66214;51.302;17.068;2023-03-23T10:30:01;4.20;;;1.90;;
77217;SDS011;66214;51.302;17.068;2023-03-23T10:35:50;5.40;;;2.20;;
77217;SDS011;66214;51.302;17.068;2023-03-23T10:38:26;5.80;;;2.50;;
77217;SDS011;66214;51.302;17.068;2023-03-23T10:41:04;6.10;;;1.80;;
77217;SDS011;66214;51.302;17.068;2023-03-23T10:43:38;4.60;;;1.50;;
77217;SDS011;66214;51.302;17.068;2023-03-23T10:49:10;3.70;;;1.60;;
77217;SDS011;66214;51.302;17.068;2023-03-23T10:51:44;4.50;;;1.60;;
77217;SDS011;66214;51.302;17.068;2023-03-23T10:54:26;5.50;;;2.00;;
77217;SDS011;66214;51.302;17.068;2023-03-23T10:56:54;4.70;;;1.20;;
77217;SDS011;66214;51.302;17.068;2023-03-23T10:59:31;5.80;;;1.40;;
77217;SDS011;66214;51.302;17.068;2023-03-23T11:02:02;5.40;;;2.20;;
77217;SDS011;66214;51.302;17.068;2023-03-23T11:04:45;5.20;;;1.70;;
77217;SDS011;66214;51.302;17.068;2023-03-23T11:07:20;5.80;;;1.50;;
77217;SDS011;66214;51.302;17.068;2023-03-23T11:09:55;4.40;;;1.80;;
77217;SDS011;66214;51.302;17.068;2023-03-23T11:12:24;4.40;;;2.10;;
77217;SDS011;66214;51.302;17.068;2023-03-23T11:14:52;4.80;;;1.80;;
77217;SDS011;66214;51.302;17.068;2023-03-23T11:17:24;5.10;;;1.90;;
77217;SDS011;66214;51.302;17.068;2023-03-23T11:19:53;3.90;;;1.90;;
77217;SDS011;66214;51.302;17.068;2023-03-23T11:22:28;5.20;;;1.90;;
77217;SDS011;66214;51.302;17.068;2023-03-23T11:25:02;4.20;;;1.40;;
77217;SDS011;66214;51.302;17.068;2023-03-23T11:27:30;5.20;;;2.50;;
77217;SDS011;66214;51.302;17.068;2023-03-23T11:30:11;4.80;;;1.50;;
77217;SDS011;66214;51.302;17.068;2023-03-23T11:32:43;5.30;;;2.00;;
77217;SDS011;66214;51.302;17.068;2023-03-23T11:35:22;5.00;;;1.90;;
77217;SDS011;66214;51.302;17.068;2023-03-23T11:37:56;6.50;;;1.90;;
77217;SDS011;66214;51.302;17.068;2023-03-23T11:40:26;5.20;;;1.70;;
77217;SDS011;66214;51.302;17.068;2023-03-23T11:43:12;4.80;;;1.50;;
77217;SDS011;66214;51.302;17.068;2023-03-23T11:45:47;4.50;;;1.50;;
77217;SDS011;66214;51.302;17.068;2023-03-23T11:48:44;4.10;;;1.20;;
77217;SDS011;66214;51.302;17.068;2023-03-23T11:54:16;2.90;;;1.30;;
77217;SDS011;66214;51.302;17.068;2023-03-23T11:56:48;4.50;;;1.90;;
77217;SDS011;66214;51.302;17.068;2023-03-23T11:59:17;4.20;;;1.70;;
77217;SDS011;66214;51.302;17.068;2023-03-23T12:05:20;4.70;;;2.00;;
77217;SDS011;66214;51.302;17.068;2023-03-23T12:14:07;5.30;;;2.30;;
77217;SDS011;66214;51.302;17.068;2023-03-23T12:19:39;7.30;;;2.10;;
77217;SDS011;66214;51.302;17.068;2023-03-23T12:25:17;6.40;;;2.20;;
77217;SDS011;66214;51.302;17.068;2023-03-23T12:31:10;5.50;;;2.10;;
77217;SDS011;66214;51.302;17.068;2023-03-23T12:42:33;4.70;;;2.10;;
77217;SDS011;66214;51.302;17.068;2023-03-23T12:45:53;4.80;;;1.90;;
77217;SDS011;66214;51.302;17.068;2023-03-23T12:48:37;3.60;;;1.60;;
77217;SDS011;66214;51.302;17.068;2023-03-23T12:51:19;5.50;;;1.90;;
77217;SDS011;66214;51.302;17.068;2023-03-23T12:59:36;5.80;;;1.80;;
77217;SDS011;66214;51.302;17.068;2023-03-23T13:02:27;5.70;;;2.00;;
77217;SDS011;66214;51.302;17.068;2023-03-23T13:07:44;4.50;;;1.80;;
77217;SDS011;66214;51.302;17.068;2023-03-23T13:10:23;5.60;;;2.40;;
77217;SDS011;66214;51.302;17.068;2023-03-23T13:12:53;4.30;;;1.70;;
77217;SDS011;66214;51.302;17.068;2023-03-23T13:21:16;5.40;;;2.30;;
77217;SDS011;66214;51.302;17.068;2023-03-23T13:23:57;6.00;;;2.00;;
77217;SDS011;66214;51.302;17.068;2023-03-23T13:26:30;5.40;;;2.10;;
77217;SDS011;66214;51.302;17.068;2023-03-23T13:29:05;9.00;;;2.30;;
77217;SDS011;66214;51.302;17.068;2023-03-23T13:31:36;5.90;;;2.40;;
77217;SDS011;66214;51.302;17.068;2023-03-23T13:34:24;7.10;;;2.10;;
77217;SDS011;66214;51.302;17.068;2023-03-23T13:39:24;5.60;;;2.20;;
77217;SDS011;66214;51.302;17.068;2023-03-23T13:44:44;8.70;;;2.70;;
77217;SDS011;66214;51.302;17.068;2023-03-23T13:50:00;5.20;;;2.10;;
77217;SDS011;66214;51.302;17.068;2023-03-23T14:10:41;6.40;;;2.50;;
77217;SDS011;66214;51.302;17.068;2023-03-23T14:13:31;7.40;;;2.20;;
77217;SDS011;66214;51.302;17.068;2023-03-23T14:16:03;6.30;;;2.40;;
77217;SDS011;66214;51.302;17.068;2023-03-23T14:18:39;5.70;;;2.50;;
77217;SDS011;66214;51.302;17.068;2023-03-23T14:21:15;8.50;;;2.20;;
77217;SDS011;66214;51.302;17.068;2023-03-23T14:23:43;6.10;;;2.60;;
77217;SDS011;66214;51.302;17.068;2023-03-23T14:26:12;6.80;;;2.90;;
77217;SDS011;66214;51.302;17.068;2023-03-23T14:28:44;7.80;;;2.90;;
77217;SDS011;66214;51.302;17.068;2023-03-23T14:31:24;6.00;;;2.70;;
77217;SDS011;66214;51.302;17.068;2023-03-23T14:33:53;4.80;;;2.20;;
77217;SDS011;66214;51.302;17.068;2023-03-23T14:36:27;6.70;;;2.50;;
77217;SDS011;66214;51.302;17.068;2023-03-23T14:39:00;6.50;;;2.30;;
77217;SDS011;66214;51.302;17.068;2023-03-23T14:41:40;6.30;;;2.50;;
77217;SDS011;66214;51.302;17.068;2023-03-23T14:44:10;4.10;;;1.80;;
77217;SDS011;66214;51.302;17.068;2023-03-23T14:46:41;6.90;;;2.70;;
77217;SDS011;66214;51.302;17.068;2023-03-23T14:49:15;5.70;;;2.20;;
77217;SDS011;66214;51.302;17.068;2023-03-23T14:52:13;6.40;;;2.70;;
77217;SDS011;66214;51.302;17.068;2023-03-23T14:54:42;4.90;;;2.10;;
77217;SDS011;66214;51.302;17.068;2023-03-23T14:57:19;6.20;;;2.20;;
77217;SDS011;66214;51.302;17.068;2023-03-23T14:59:53;5.80;;;2.00;;
77217;SDS011;66214;51.302;17.068;2023-03-23T15:02:32;5.20;;;2.00;;
77217;SDS011;66214;51.302;17.068;2023-03-23T15:05:11;5.80;;;2.20;;
77217;SDS011;66214;51.302;17.068;2023-03-23T15:07:44;5.30;;;2.10;;
77217;SDS011;66214;51.302;17.068;2023-03-23T15:10:18;7.20;;;2.10;;
77217;SDS011;66214;51.302;17.068;2023-03-23T15:12:48;5.90;;;1.70;;
77217;SDS011;66214;51.302;17.068;2023-03-23T15:15:31;7.10;;;2.70;;
77217;SDS011;66214;51.302;17.068;2023-03-23T15:18:00;5.60;;;2.60;;
77217;SDS011;66214;51.302;17.068;2023-03-23T15:20:28;6.80;;;2.80;;
77217;SDS011;66214;51.302;17.068;2023-03-23T15:22:56;7.20;;;3.10;;
77217;SDS011;66214;51.302;17.068;2023-03-23T15:25:32;6.60;;;3.20;;
77217;SDS011;66214;51.302;17.068;2023-03-23T15:28:28;7.30;;;3.60;;
77217;SDS011;66214;51.302;17.068;2023-03-23T15:31:01;9.20;;;4.10;;
77217;SDS011;66214;51.302;17.068;2023-03-23T15:33:37;7.40;;;3.60;;
77217;SDS011;66214;51.302;17.068;2023-03-23T15:36:08;6.60;;;3.20;;
77217;SDS011;66214;51.302;17.068;2023-03-23T15:38:44;6.50;;;3.40;;
77217;SDS011;66214;51.302;17.068;2023-03-23T15:41:24;6.40;;;2.80;;
77217;SDS011;66214;51.302;17.068;2023-03-23T15:43:57;8.50;;;3.80;;
77217;SDS011;66214;51.302;17.068;2023-03-23T15:46:27;19.40;;;9.20;;
77217;SDS011;66214;51.302;17.068;2023-03-23T15:51:28;9.50;;;4.50;;
77217;SDS011;66214;51.302;17.068;2023-03-23T15:53:56;8.40;;;3.70;;
77217;SDS011;66214;51.302;17.068;2023-03-23T15:56:24;9.50;;;3.90;;
77217;SDS011;66214;51.302;17.068;2023-03-23T15:58:51;9.70;;;4.20;;
77217;SDS011;66214;51.302;17.068;2023-03-23T16:01:24;8.70;;;3.30;;
77217;SDS011;66214;51.302;17.068;2023-03-23T16:03:58;11.80;;;4.20;;
77217;SDS011;66214;51.302;17.068;2023-03-23T16:06:30;14.00;;;6.30;;
77217;SDS011;66214;51.302;17.068;2023-03-23T16:08:58;10.00;;;3.80;;
77217;SDS011;66214;51.302;17.068;2023-03-23T16:11:27;7.30;;;2.90;;
77217;SDS011;66214;51.302;17.068;2023-03-23T16:13:54;10.20;;;3.20;;
77217;SDS011;66214;51.302;17.068;2023-03-23T16:16:43;10.30;;;4.00;;
77217;SDS011;66214;51.302;17.068;2023-03-23T16:19:13;20.00;;;8.70;;
77217;SDS011;66214;51.302;17.068;2023-03-23T16:21:41;24.60;;;11.70;;
77217;SDS011;66214;51.302;17.068;2023-03-23T16:24:08;13.60;;;7.00;;
77217;SDS011;66214;51.302;17.068;2023-03-23T16:26:35;15.30;;;7.70;;
77217;SDS011;66214;51.302;17.068;2023-03-23T16:29:09;11.40;;;5.20;;
77217;SDS011;66214;51.302;17.068;2023-03-23T16:31:37;17.10;;;7.00;;
77217;SDS011;66214;51.302;17.068;2023-03-23T16:34:04;12.60;;;6.30;;
77217;SDS011;66214;51.302;17.068;2023-03-23T16:36:31;14.00;;;5.80;;
77217;SDS011;66214;51.302;17.068;2023-03-23T16:38:58;13.10;;;5.20;;
77217;SDS011;66214;51.302;17.068;2023-03-23T16:41:24;11.40;;;5.20;;
77217;SDS011;66214;51.302;17.068;2023-03-23T16:43:51;8.30;;;3.90;;
77217;SDS011;66214;51.302;17.068;2023-03-23T16:46:17;8.90;;;4.10;;
77217;SDS011;66214;51.302;17.068;2023-03-23T16:48:44;7.30;;;4.20;;
77217;SDS011;66214;51.302;17.068;2023-03-23T16:51:10;6.80;;;3.80;;
77217;SDS011;66214;51.302;17.068;2023-03-23T16:53:37;10.20;;;4.50;;